sensor_id;sensor_type;location;lat;lon;timestamp;pressure;altitude;pressure_sealevel;temperature;humidity
56241;BME280;42155;53.096;23.226;2023-05-02T00:01:43;100175.44;;;6.48;53.76
56241;BME280;42155;53.096;23.226;2023-05-02T00:03:43;100195.13;;;6.57;53.37
56241;BME280;42155;53.096;23.226;2023-05-02T00:05:44;100198.22;;;6.49;53.61
56241;BME280;42155;53.096;23.226;2023-05-02T00:07:44;100201.38;;;6.40;54.28
56241;BME280;42155;53.096;23.226;2023-05-02T00:09:45;100196.09;;;6.26;54.59
56241;BME280;42155;53.096;23.226;2023-05-02T00:11:45;100202.47;;;6.22;55.12
56241;BME280;42155;53.096;23.226;2023-05-02T00:13:45;100204.81;;;6.12;55.25
56241;BME280;42155;53.096;23.226;2023-05-02T00:15:46;100194.63;;;6.06;54.98
56241;BME280;42155;53.096;23.226;2023-05-02T00:17:46;100196.66;;;6.01;55.19
56241;BME280;42155;53.096;23.226;2023-05-02T00:19:47;100197.00;;;5.95;55.64
56241;BME280;42155;53.096;23.226;2023-05-02T00:21:47;100192.91;;;5.89;55.54
56241;BME280;42155;53.096;23.226;2023-05-02T00:23:47;100190.06;;;5.94;55.31
56241;BME280;42155;53.096;23.226;2023-05-02T00:25:49;100111.28;;;5.43;55.94
56241;BME280;42155;53.096;23.226;2023-05-02T00:27:50;100187.53;;;5.92;55.81
56241;BME280;42155;53.096;23.226;2023-05-02T00:29:50;100195.44;;;5.92;55.40
56241;BME280;42155;53.096;23.226;2023-05-02T00:31:50;100194.63;;;5.90;56.05
56241;BME280;42155;53.096;23.226;2023-05-02T00:33:51;100189.34;;;5.90;55.62
56241;BME280;42155;53.096;23.226;2023-05-02T00:35:51;100185.13;;;5.87;55.66
56241;BME280;42155;53.096;23.226;2023-05-02T00:37:51;100180.88;;;5.85;55.68
56241;BME280;42155;53.096;23.226;2023-05-02T00:39:52;100182.06;;;5.79;55.67
56241;BME280;42155;53.096;23.226;2023-05-02T00:41:56;100183.19;;;5.75;56.21
56241;BME280;42155;53.096;23.226;2023-05-02T00:43:57;100168.59;;;5.70;55.86
56241;BME280;42155;53.096;23.226;2023-05-02T00:45:57;100157.78;;;5.58;55.85
56241;BME280;42155;53.096;23.226;2023-05-02T00:47:58;100154.56;;;5.53;56.06
56241;BME280;42155;53.096;23.226;2023-05-02T00:49:58;100163.56;;;5.49;55.72
56241;BME280;42155;53.096;23.226;2023-05-02T00:51:59;100159.03;;;5.37;56.29
56241;BME280;42155;53.096;23.226;2023-05-02T00:54:00;100186.69;;;5.44;57.07
56241;BME280;42155;53.096;23.226;2023-05-02T00:56:01;100151.22;;;5.20;56.83
56241;BME280;42155;53.096;23.226;2023-05-02T00:58:04;100178.00;;;5.26;57.50
56241;BME280;42155;53.096;23.226;2023-05-02T01:00:07;100180.16;;;5.20;57.67
56241;BME280;42155;53.096;23.226;2023-05-02T01:11:29;100184.13;;;4.95;58.30
56241;BME280;42155;53.096;23.226;2023-05-02T01:13:35;100179.69;;;4.96;57.98
56241;BME280;42155;53.096;23.226;2023-05-02T01:15:38;100186.50;;;5.00;58.16
56241;BME280;42155;53.096;23.226;2023-05-02T01:17:40;100180.91;;;5.06;57.41
56241;BME280;42155;53.096;23.226;2023-05-02T01:19:46;100175.53;;;5.07;57.24
56241;BME280;42155;53.096;23.226;2023-05-02T01:21:47;100169.44;;;5.07;57.80
56241;BME280;42155;53.096;23.226;2023-05-02T01:24:18;100165.13;;;5.06;58.16
56241;BME280;42155;53.096;23.226;2023-05-02T01:29:03;100164.13;;;5.08;57.89
56241;BME280;42155;53.096;23.226;2023-05-02T01:31:05;100087.38;;;4.69;57.41
56241;BME280;42155;53.096;23.226;2023-05-02T01:33:10;100132.28;;;4.97;57.35
56241;BME280;42155;53.096;23.226;2023-05-02T01:35:13;100150.78;;;5.11;57.22
56241;BME280;42155;53.096;23.226;2023-05-02T01:37:16;100075.41;;;4.63;57.76
56241;BME280;42155;53.096;23.226;2023-05-02T01:39:19;100107.91;;;4.94;57.69
56241;BME280;42155;53.096;23.226;2023-05-02T01:41:21;100142.56;;;5.18;57.39
56241;BME280;42155;53.096;23.226;2023-05-02T01:43:24;100141.69;;;5.17;57.67
56241;BME280;42155;53.096;23.226;2023-05-02T01:45:26;100145.09;;;5.19;57.26
56241;BME280;42155;53.096;23.226;2023-05-02T01:47:30;100139.59;;;5.24;57.45
56241;BME280;42155;53.096;23.226;2023-05-02T01:49:33;100143.66;;;5.29;57.21
56241;BME280;42155;53.096;23.226;2023-05-02T01:51:43;100130.97;;;5.36;57.45
56241;BME280;42155;53.096;23.226;2023-05-02T01:53:47;100132.44;;;5.42;57.20
56241;BME280;42155;53.096;23.226;2023-05-02T01:55:48;100119.03;;;5.46;56.57
56241;BME280;42155;53.096;23.226;2023-05-02T01:57:49;100115.28;;;5.50;57.23
56241;BME280;42155;53.096;23.226;2023-05-02T01:59:54;100112.47;;;5.53;56.38
56241;BME280;42155;53.096;23.226;2023-05-02T02:01:56;100084.50;;;5.36;56.64
56241;BME280;42155;53.096;23.226;2023-05-02T02:03:59;100111.19;;;5.60;57.17
56241;BME280;42155;53.096;23.226;2023-05-02T02:06:01;100111.94;;;5.62;56.61
56241;BME280;42155;53.096;23.226;2023-05-02T02:08:02;100101.59;;;5.59;56.61
56241;BME280;42155;53.096;23.226;2023-05-02T02:10:03;100114.28;;;5.67;56.27
56241;BME280;42155;53.096;23.226;2023-05-02T02:12:15;100035.53;;;5.18;56.58
56241;BME280;42155;53.096;23.226;2023-05-02T02:14:20;100104.44;;;5.71;56.54
56241;BME280;42155;53.096;23.226;2023-05-02T02:16:27;100106.97;;;5.72;56.87
56241;BME280;42155;53.096;23.226;2023-05-02T02:18:28;100112.19;;;5.74;56.80
56241;BME280;42155;53.096;23.226;2023-05-02T02:20:31;100108.50;;;5.76;56.71
56241;BME280;42155;53.096;23.226;2023-05-02T02:22:36;100107.50;;;5.79;57.06
56241;BME280;42155;53.096;23.226;2023-05-02T02:24:38;100102.22;;;5.79;56.88
56241;BME280;42155;53.096;23.226;2023-05-02T02:26:40;100101.19;;;5.81;56.53
56241;BME280;42155;53.096;23.226;2023-05-02T02:28:40;100095.63;;;5.86;56.78
56241;BME280;42155;53.096;23.226;2023-05-02T02:30:41;100095.63;;;5.86;57.20
56241;BME280;42155;53.096;23.226;2023-05-02T02:32:41;100091.31;;;5.85;56.57
56241;BME280;42155;53.096;23.226;2023-05-02T02:34:41;100091.31;;;5.85;57.28
56241;BME280;42155;53.096;23.226;2023-05-02T02:36:54;100080.59;;;5.88;56.81
56241;BME280;42155;53.096;23.226;2023-05-02T02:41:37;100074.84;;;5.97;56.72
56241;BME280;42155;53.096;23.226;2023-05-02T02:46:13;100084.63;;;6.09;56.30
56241;BME280;42155;53.096;23.226;2023-05-02T02:50:56;100077.00;;;6.19;55.79
56241;BME280;42155;53.096;23.226;2023-05-02T02:53:04;100076.81;;;6.22;56.36
56241;BME280;42155;53.096;23.226;2023-05-02T02:57:39;100073.75;;;6.30;55.74
56241;BME280;42155;53.096;23.226;2023-05-02T02:59:50;100075.03;;;6.37;55.16
56241;BME280;42155;53.096;23.226;2023-05-02T03:02:14;100065.16;;;6.41;55.75
56241;BME280;42155;53.096;23.226;2023-05-02T03:04:17;100055.09;;;6.47;55.51
56241;BME280;42155;53.096;23.226;2023-05-02T03:06:20;100055.56;;;6.54;55.09
56241;BME280;42155;53.096;23.226;2023-05-02T03:08:21;100039.00;;;6.52;55.30
56241;BME280;42155;53.096;23.226;2023-05-02T03:10:22;100047.72;;;6.67;54.79
56241;BME280;42155;53.096;23.226;2023-05-02T03:12:22;100043.75;;;6.74;54.74
56241;BME280;42155;53.096;23.226;2023-05-02T03:14:23;99999.34;;;6.53;54.18
56241;BME280;42155;53.096;23.226;2023-05-02T03:16:36;100036.47;;;6.92;53.95
56241;BME280;42155;53.096;23.226;2023-05-02T03:18:38;99993.44;;;6.77;53.91
56241;BME280;42155;53.096;23.226;2023-05-02T03:20:39;100029.34;;;7.06;54.44
56241;BME280;42155;53.096;23.226;2023-05-02T03:22:39;100027.81;;;7.17;54.17
56241;BME280;42155;53.096;23.226;2023-05-02T03:24:40;100028.25;;;7.23;53.37
56241;BME280;42155;53.096;23.226;2023-05-02T03:26:40;100025.66;;;7.36;53.58
56241;BME280;42155;53.096;23.226;2023-05-02T03:28:40;100035.19;;;7.51;52.78
56241;BME280;42155;53.096;23.226;2023-05-02T03:30:41;100030.03;;;7.62;52.48
56241;BME280;42155;53.096;23.226;2023-05-02T03:32:41;100022.13;;;7.75;52.45
56241;BME280;42155;53.096;23.226;2023-05-02T03:34:41;100010.84;;;7.86;52.64
56241;BME280;42155;53.096;23.226;2023-05-02T03:36:42;100014.13;;;8.02;51.79
56241;BME280;42155;53.096;23.226;2023-05-02T03:38:42;99997.94;;;8.07;51.73
56241;BME280;42155;53.096;23.226;2023-05-02T03:40:42;99970.16;;;8.01;51.54
56241;BME280;42155;53.096;23.226;2023-05-02T03:42:43;99989.88;;;8.34;50.89
56241;BME280;42155;53.096;23.226;2023-05-02T03:44:43;100007.94;;;8.65;51.04
56241;BME280;42155;53.096;23.226;2023-05-02T03:46:44;100003.00;;;8.85;51.10
56241;BME280;42155;53.096;23.226;2023-05-02T03:48:45;99996.88;;;9.08;50.04
56241;BME280;42155;53.096;23.226;2023-05-02T03:50:45;100000.69;;;9.63;49.36
56241;BME280;42155;53.096;23.226;2023-05-02T03:52:46;99997.88;;;10.23;48.27
56241;BME280;42155;53.096;23.226;2023-05-02T03:54:46;99989.91;;;10.79;46.39
56241;BME280;42155;53.096;23.226;2023-05-02T03:56:47;99988.56;;;11.16;45.91
56241;BME280;42155;53.096;23.226;2023-05-02T03:58:47;99997.75;;;11.44;45.56
56241;BME280;42155;53.096;23.226;2023-05-02T04:00:48;99968.31;;;11.36;45.44
56241;BME280;42155;53.096;23.226;2023-05-02T04:02:48;99991.53;;;11.34;46.11
56241;BME280;42155;53.096;23.226;2023-05-02T04:04:49;99992.44;;;11.24;45.98
56241;BME280;42155;53.096;23.226;2023-05-02T04:06:49;99973.91;;;11.01;46.06
56241;BME280;42155;53.096;23.226;2023-05-02T04:08:49;99993.22;;;11.03;46.10
56241;BME280;42155;53.096;23.226;2023-05-02T04:10:50;100003.06;;;11.12;45.61
56241;BME280;42155;53.096;23.226;2023-05-02T04:12:50;100004.75;;;11.13;45.61
56241;BME280;42155;53.096;23.226;2023-05-02T04:14:51;100011.78;;;11.14;45.72
56241;BME280;42155;53.096;23.226;2023-05-02T04:16:51;100002.59;;;11.18;46.13
56241;BME280;42155;53.096;23.226;2023-05-02T04:18:52;100003.50;;;11.29;45.31
56241;BME280;42155;53.096;23.226;2023-05-02T04:20:52;99999.13;;;11.39;45.21
56241;BME280;42155;53.096;23.226;2023-05-02T04:22:53;100003.16;;;11.54;44.98
56241;BME280;42155;53.096;23.226;2023-05-02T04:24:53;99990.06;;;11.62;45.10
56241;BME280;42155;53.096;23.226;2023-05-02T04:26:54;100000.81;;;11.82;44.60
56241;BME280;42155;53.096;23.226;2023-05-02T04:28:54;99988.63;;;12.00;44.76
56241;BME280;42155;53.096;23.226;2023-05-02T04:30:55;99994.06;;;12.19;43.92
56241;BME280;42155;53.096;23.226;2023-05-02T04:32:55;99992.31;;;12.30;43.72
56241;BME280;42155;53.096;23.226;2023-05-02T04:34:56;99979.00;;;12.30;44.11
56241;BME280;42155;53.096;23.226;2023-05-02T04:36:56;99989.97;;;12.46;43.76
56241;BME280;42155;53.096;23.226;2023-05-02T04:38:57;99943.69;;;12.28;44.08
56241;BME280;42155;53.096;23.226;2023-05-02T04:40:57;99986.94;;;12.60;43.91
56241;BME280;42155;53.096;23.226;2023-05-02T04:42:57;99984.69;;;12.65;43.28
56241;BME280;42155;53.096;23.226;2023-05-02T04:44:58;99982.31;;;12.62;43.24
56241;BME280;42155;53.096;23.226;2023-05-02T04:46:58;99984.69;;;12.65;43.46
56241;BME280;42155;53.096;23.226;2023-05-02T04:48:59;99952.59;;;12.57;43.21
56241;BME280;42155;53.096;23.226;2023-05-02T04:50:59;99968.31;;;12.80;43.27
56241;BME280;42155;53.096;23.226;2023-05-02T04:52:59;99959.66;;;12.97;43.23
56241;BME280;42155;53.096;23.226;2023-05-02T04:55:00;99955.47;;;13.14;43.22
56241;BME280;42155;53.096;23.226;2023-05-02T04:57:00;99966.16;;;13.43;42.77
56241;BME280;42155;53.096;23.226;2023-05-02T04:59:00;99959.53;;;13.57;41.58
56241;BME280;42155;53.096;23.226;2023-05-02T05:01:01;99970.59;;;13.81;41.70
56241;BME280;42155;53.096;23.226;2023-05-02T05:03:01;99967.13;;;14.08;41.81
56241;BME280;42155;53.096;23.226;2023-05-02T05:05:01;99959.88;;;14.38;40.81
56241;BME280;42155;53.096;23.226;2023-05-02T05:07:02;99906.06;;;14.33;40.44
56241;BME280;42155;53.096;23.226;2023-05-02T05:09:02;99963.13;;;14.87;39.56
56241;BME280;42155;53.096;23.226;2023-05-02T05:11:03;99945.25;;;14.87;40.09
56241;BME280;42155;53.096;23.226;2023-05-02T05:13:03;99960.00;;;15.09;39.53
56241;BME280;42155;53.096;23.226;2023-05-02T05:15:04;99892.16;;;14.84;39.36
56241;BME280;42155;53.096;23.226;2023-05-02T05:17:05;99952.91;;;15.36;39.34
56241;BME280;42155;53.096;23.226;2023-05-02T05:19:05;99963.06;;;15.50;39.03
56241;BME280;42155;53.096;23.226;2023-05-02T05:21:09;99958.53;;;15.50;38.78
56241;BME280;42155;53.096;23.226;2023-05-02T05:23:09;99955.31;;;15.47;38.94
56241;BME280;42155;53.096;23.226;2023-05-02T05:25:10;99952.06;;;15.35;39.37
56241;BME280;42155;53.096;23.226;2023-05-02T05:27:10;99944.72;;;15.19;39.31
56241;BME280;42155;53.096;23.226;2023-05-02T05:29:11;99962.53;;;15.11;39.48
56241;BME280;42155;53.096;23.226;2023-05-02T05:31:12;99957.25;;;15.01;40.00
56241;BME280;42155;53.096;23.226;2023-05-02T05:33:13;99941.06;;;14.85;40.24
56241;BME280;42155;53.096;23.226;2023-05-02T05:35:13;99942.06;;;14.84;40.15
56241;BME280;42155;53.096;23.226;2023-05-02T05:37:14;99952.53;;;14.95;40.01
56241;BME280;42155;53.096;23.226;2023-05-02T05:39:14;99952.38;;;15.14;40.02
56241;BME280;42155;53.096;23.226;2023-05-02T05:41:14;99948.22;;;15.56;38.90
56241;BME280;42155;53.096;23.226;2023-05-02T05:43:15;99953.41;;;16.01;38.71
56241;BME280;42155;53.096;23.226;2023-05-02T05:45:15;99881.13;;;16.01;37.80
56241;BME280;42155;53.096;23.226;2023-05-02T05:47:19;99924.22;;;16.66;37.35
56241;BME280;42155;53.096;23.226;2023-05-02T05:49:20;99928.00;;;17.06;37.12
56241;BME280;42155;53.096;23.226;2023-05-02T05:51:20;99935.22;;;17.30;36.58
56241;BME280;42155;53.096;23.226;2023-05-02T05:53:21;99882.75;;;17.03;36.95
56241;BME280;42155;53.096;23.226;2023-05-02T05:55:21;99937.75;;;17.48;36.71
56241;BME280;42155;53.096;23.226;2023-05-02T05:57:22;99938.56;;;17.56;36.98
56241;BME280;42155;53.096;23.226;2023-05-02T05:59:22;99920.97;;;17.62;36.87
56241;BME280;42155;53.096;23.226;2023-05-02T06:01:23;99913.22;;;17.67;36.54
56241;BME280;42155;53.096;23.226;2023-05-02T06:03:23;99920.63;;;17.81;36.76
56241;BME280;42155;53.096;23.226;2023-05-02T06:05:23;99912.03;;;17.86;36.46
56241;BME280;42155;53.096;23.226;2023-05-02T06:07:24;99922.88;;;18.09;36.34
56241;BME280;42155;53.096;23.226;2023-05-02T06:09:24;99938.59;;;18.28;36.41
56241;BME280;42155;53.096;23.226;2023-05-02T06:11:25;99921.09;;;18.41;35.99
56241;BME280;42155;53.096;23.226;2023-05-02T06:13:25;99922.19;;;18.54;35.99
56241;BME280;42155;53.096;23.226;2023-05-02T06:15:25;99921.16;;;18.64;35.55
56241;BME280;42155;53.096;23.226;2023-05-02T06:17:26;99925.31;;;18.74;35.66
56241;BME280;42155;53.096;23.226;2023-05-02T06:19:26;99916.91;;;18.77;35.89
56241;BME280;42155;53.096;23.226;2023-05-02T06:21:26;99859.09;;;18.42;36.04
56241;BME280;42155;53.096;23.226;2023-05-02T06:23:27;99920.22;;;18.79;35.92
56241;BME280;42155;53.096;23.226;2023-05-02T06:25:27;99931.22;;;18.70;35.69
56241;BME280;42155;53.096;23.226;2023-05-02T06:27:28;99930.88;;;18.65;36.15
56241;BME280;42155;53.096;23.226;2023-05-02T06:29:28;99918.78;;;18.69;35.77
56241;BME280;42155;53.096;23.226;2023-05-02T06:31:29;99928.69;;;18.68;36.00
56241;BME280;42155;53.096;23.226;2023-05-02T06:33:30;99923.63;;;18.73;36.10
56241;BME280;42155;53.096;23.226;2023-05-02T06:35:30;99921.50;;;18.92;35.74
56241;BME280;42155;53.096;23.226;2023-05-02T06:37:34;99919.91;;;19.05;35.89
56241;BME280;42155;53.096;23.226;2023-05-02T06:39:35;99910.22;;;19.19;35.93
56241;BME280;42155;53.096;23.226;2023-05-02T06:41:35;99914.81;;;19.33;35.24
56241;BME280;42155;53.096;23.226;2023-05-02T06:43:35;99909.72;;;19.39;35.39
56241;BME280;42155;53.096;23.226;2023-05-02T06:45:36;99901.84;;;19.37;35.17
56241;BME280;42155;53.096;23.226;2023-05-02T06:47:36;99906.44;;;19.28;35.43
56241;BME280;42155;53.096;23.226;2023-05-02T06:49:36;99908.41;;;19.12;35.31
56241;BME280;42155;53.096;23.226;2023-05-02T06:51:37;99889.53;;;18.97;35.62
56241;BME280;42155;53.096;23.226;2023-05-02T06:53:37;99896.09;;;18.94;36.41
56241;BME280;42155;53.096;23.226;2023-05-02T06:55:37;99906.03;;;18.94;36.00
56241;BME280;42155;53.096;23.226;2023-05-02T06:57:38;99911.41;;;18.94;36.41
56241;BME280;42155;53.096;23.226;2023-05-02T06:59:38;99895.38;;;18.77;36.01
56241;BME280;42155;53.096;23.226;2023-05-02T07:01:38;99910.69;;;19.00;35.93
56241;BME280;42155;53.096;23.226;2023-05-02T07:03:39;99923.13;;;19.24;35.97
56241;BME280;42155;53.096;23.226;2023-05-02T07:05:39;99885.53;;;19.16;35.06
56241;BME280;42155;53.096;23.226;2023-05-02T07:07:43;99906.97;;;19.24;35.24
56241;BME280;42155;53.096;23.226;2023-05-02T07:09:44;99914.88;;;19.25;35.37
56241;BME280;42155;53.096;23.226;2023-05-02T07:11:44;99914.88;;;19.25;35.24
56241;BME280;42155;53.096;23.226;2023-05-02T07:13:44;99887.38;;;19.15;35.42
56241;BME280;42155;53.096;23.226;2023-05-02T07:15:45;99920.13;;;19.42;35.28
56241;BME280;42155;53.096;23.226;2023-05-02T07:17:46;99921.78;;;19.43;35.91
56241;BME280;42155;53.096;23.226;2023-05-02T07:19:46;99912.41;;;19.39;35.45
56241;BME280;42155;53.096;23.226;2023-05-02T07:21:46;99896.44;;;19.37;35.91
56241;BME280;42155;53.096;23.226;2023-05-02T07:23:47;99876.31;;;19.48;35.77
56241;BME280;42155;53.096;23.226;2023-05-02T07:25:47;99896.03;;;19.63;35.94
56241;BME280;42155;53.096;23.226;2023-05-02T07:27:47;99883.63;;;19.62;35.92
56241;BME280;42155;53.096;23.226;2023-05-02T07:29:48;99920.97;;;19.95;35.42
56241;BME280;42155;53.096;23.226;2023-05-02T07:31:49;99878.50;;;19.82;35.74
56241;BME280;42155;53.096;23.226;2023-05-02T07:33:49;99913.34;;;20.13;35.31
56241;BME280;42155;53.096;23.226;2023-05-02T07:35:50;99897.19;;;20.13;35.91
56241;BME280;42155;53.096;23.226;2023-05-02T07:37:50;99898.56;;;20.24;35.41
56241;BME280;42155;53.096;23.226;2023-05-02T07:39:50;99908.31;;;20.40;35.22
56241;BME280;42155;53.096;23.226;2023-05-02T07:41:52;99913.97;;;20.45;34.75
56241;BME280;42155;53.096;23.226;2023-05-02T07:43:52;99876.47;;;20.14;35.36
56241;BME280;42155;53.096;23.226;2023-05-02T07:45:52;99914.53;;;20.40;35.26
56241;BME280;42155;53.096;23.226;2023-05-02T07:47:53;99901.34;;;20.30;34.96
56241;BME280;42155;53.096;23.226;2023-05-02T07:49:54;99901.63;;;20.35;35.96
56241;BME280;42155;53.096;23.226;2023-05-02T07:51:55;99898.09;;;20.35;36.47
56241;BME280;42155;53.096;23.226;2023-05-02T07:53:55;99907.84;;;20.51;36.36
56241;BME280;42155;53.096;23.226;2023-05-02T07:55:55;99904.78;;;20.54;36.01
56241;BME280;42155;53.096;23.226;2023-05-02T07:57:56;99885.44;;;20.50;35.92
56241;BME280;42155;53.096;23.226;2023-05-02T07:59:56;99879.38;;;20.63;35.84
56241;BME280;42155;53.096;23.226;2023-05-02T08:01:56;99870.25;;;20.64;36.05
56241;BME280;42155;53.096;23.226;2023-05-02T08:03:57;99888.34;;;20.85;36.00
56241;BME280;42155;53.096;23.226;2023-05-02T08:05:57;99895.19;;;20.88;36.38
56241;BME280;42155;53.096;23.226;2023-05-02T08:07:58;99896.47;;;20.92;36.14
56241;BME280;42155;53.096;23.226;2023-05-02T08:09:58;99895.44;;;20.93;35.79
56241;BME280;42155;53.096;23.226;2023-05-02T08:11:58;99906.25;;;20.93;35.37
56241;BME280;42155;53.096;23.226;2023-05-02T08:13:58;99907.13;;;20.78;35.73
56241;BME280;42155;53.096;23.226;2023-05-02T08:15:59;99895.13;;;20.81;35.87
56241;BME280;42155;53.096;23.226;2023-05-02T08:17:59;99897.88;;;20.88;36.17
56241;BME280;42155;53.096;23.226;2023-05-02T08:19:59;99905.97;;;20.88;35.82
56241;BME280;42155;53.096;23.226;2023-05-02T08:22:00;99895.84;;;20.90;35.90
56241;BME280;42155;53.096;23.226;2023-05-02T08:24:00;99898.81;;;20.95;36.17
56241;BME280;42155;53.096;23.226;2023-05-02T08:26:01;99898.34;;;20.91;36.81
56241;BME280;42155;53.096;23.226;2023-05-02T08:28:01;99897.81;;;21.02;36.67
56241;BME280;42155;53.096;23.226;2023-05-02T08:30:02;99890.84;;;21.08;36.22
56241;BME280;42155;53.096;23.226;2023-05-02T08:32:02;99888.44;;;20.98;36.41
56241;BME280;42155;53.096;23.226;2023-05-02T08:34:03;99903.09;;;21.10;37.16
56241;BME280;42155;53.096;23.226;2023-05-02T08:36:13;99898.66;;;21.24;36.41
56241;BME280;42155;53.096;23.226;2023-05-02T08:38:13;99908.88;;;21.29;37.00
56241;BME280;42155;53.096;23.226;2023-05-02T08:40:16;99888.31;;;21.49;36.94
56241;BME280;42155;53.096;23.226;2023-05-02T08:42:16;99897.97;;;21.65;37.52
56241;BME280;42155;53.096;23.226;2023-05-02T08:44:16;99892.25;;;21.81;37.33
56241;BME280;42155;53.096;23.226;2023-05-02T08:46:17;99896.00;;;21.80;36.46
56241;BME280;42155;53.096;23.226;2023-05-02T08:48:18;99896.44;;;21.84;36.69
56241;BME280;42155;53.096;23.226;2023-05-02T08:50:18;99891.72;;;21.93;36.64
56241;BME280;42155;53.096;23.226;2023-05-02T08:52:20;99884.09;;;22.03;36.17
56241;BME280;42155;53.096;23.226;2023-05-02T08:54:22;99881.00;;;22.06;36.53
56241;BME280;42155;53.096;23.226;2023-05-02T08:56:23;99880.75;;;22.01;36.84
56241;BME280;42155;53.096;23.226;2023-05-02T08:58:23;99887.22;;;22.06;37.70
56241;BME280;42155;53.096;23.226;2023-05-02T09:00:24;99860.16;;;22.00;37.13
56241;BME280;42155;53.096;23.226;2023-05-02T09:04:40;99868.44;;;22.26;37.05
56241;BME280;42155;53.096;23.226;2023-05-02T09:06:40;99883.88;;;22.32;37.18
56241;BME280;42155;53.096;23.226;2023-05-02T09:08:42;99852.53;;;22.10;36.55
56241;BME280;42155;53.096;23.226;2023-05-02T09:10:44;99855.56;;;22.28;37.11
56241;BME280;42155;53.096;23.226;2023-05-02T09:12:44;99866.16;;;22.36;37.47
56241;BME280;42155;53.096;23.226;2023-05-02T09:14:44;99823.69;;;22.17;37.82
56241;BME280;42155;53.096;23.226;2023-05-02T09:16:46;99878.31;;;22.54;37.19
56241;BME280;42155;53.096;23.226;2023-05-02T09:18:57;99882.06;;;22.59;37.05
56241;BME280;42155;53.096;23.226;2023-05-02T09:20:59;99864.16;;;22.58;37.36
56241;BME280;42155;53.096;23.226;2023-05-02T09:23:00;99865.22;;;22.64;37.21
56241;BME280;42155;53.096;23.226;2023-05-02T09:25:00;99857.94;;;22.65;37.53
56241;BME280;42155;53.096;23.226;2023-05-02T09:27:02;99866.91;;;22.65;37.15
56241;BME280;42155;53.096;23.226;2023-05-02T09:29:03;99854.63;;;22.56;37.50
56241;BME280;42155;53.096;23.226;2023-05-02T09:31:08;99864.22;;;22.65;38.10
56241;BME280;42155;53.096;23.226;2023-05-02T09:33:09;99849.25;;;22.76;38.26
56241;BME280;42155;53.096;23.226;2023-05-02T09:35:10;99856.94;;;22.85;37.42
56241;BME280;42155;53.096;23.226;2023-05-02T09:37:10;99858.03;;;22.91;38.19
56241;BME280;42155;53.096;23.226;2023-05-02T09:39:15;99857.84;;;22.93;37.28
56241;BME280;42155;53.096;23.226;2023-05-02T09:41:16;99858.25;;;22.90;37.48
56241;BME280;42155;53.096;23.226;2023-05-02T09:43:17;99856.56;;;22.88;37.35
56241;BME280;42155;53.096;23.226;2023-05-02T09:45:26;99829.25;;;22.77;37.24
56241;BME280;42155;53.096;23.226;2023-05-02T09:47:26;99847.03;;;22.93;37.40
56241;BME280;42155;53.096;23.226;2023-05-02T09:49:40;99823.66;;;22.85;37.41
56241;BME280;42155;53.096;23.226;2023-05-02T09:51:41;99840.34;;;22.95;37.84
56241;BME280;42155;53.096;23.226;2023-05-02T09:53:43;99822.03;;;22.91;37.97
56241;BME280;42155;53.096;23.226;2023-05-02T09:55:43;99842.22;;;22.95;37.99
56241;BME280;42155;53.096;23.226;2023-05-02T09:57:44;99851.38;;;22.94;37.96
56241;BME280;42155;53.096;23.226;2023-05-02T09:59:57;99842.03;;;23.03;38.27
56241;BME280;42155;53.096;23.226;2023-05-02T10:01:59;99835.56;;;23.17;38.58
56241;BME280;42155;53.096;23.226;2023-05-02T10:04:00;99824.53;;;23.19;38.27
56241;BME280;42155;53.096;23.226;2023-05-02T10:06:03;99841.19;;;23.22;37.87
56241;BME280;42155;53.096;23.226;2023-05-02T10:08:08;99837.44;;;23.23;36.85
56241;BME280;42155;53.096;23.226;2023-05-02T10:10:13;99832.03;;;23.30;37.20
56241;BME280;42155;53.096;23.226;2023-05-02T10:12:17;99844.72;;;23.29;37.12
56241;BME280;42155;53.096;23.226;2023-05-02T10:14:21;99824.09;;;23.15;36.97
56241;BME280;42155;53.096;23.226;2023-05-02T10:16:26;99799.94;;;23.00;37.39
56241;BME280;42155;53.096;23.226;2023-05-02T10:18:36;99838.25;;;23.24;37.09
56241;BME280;42155;53.096;23.226;2023-05-02T10:20:47;99815.38;;;23.13;36.98
56241;BME280;42155;53.096;23.226;2023-05-02T10:22:52;99826.81;;;23.15;37.47
56241;BME280;42155;53.096;23.226;2023-05-02T10:24:52;99813.28;;;23.02;37.21
56241;BME280;42155;53.096;23.226;2023-05-02T10:26:54;99808.28;;;22.99;37.22
56241;BME280;42155;53.096;23.226;2023-05-02T10:28:55;99824.94;;;23.09;37.41
56241;BME280;42155;53.096;23.226;2023-05-02T10:30:57;99820.16;;;23.04;37.04
56241;BME280;42155;53.096;23.226;2023-05-02T10:32:59;99825.09;;;22.87;37.38
56241;BME280;42155;53.096;23.226;2023-05-02T10:35:04;99816.13;;;22.74;37.72
56241;BME280;42155;53.096;23.226;2023-05-02T10:37:05;99807.59;;;22.57;37.59
56241;BME280;42155;53.096;23.226;2023-05-02T10:39:06;99813.81;;;22.64;37.54
56241;BME280;42155;53.096;23.226;2023-05-02T10:41:13;99825.72;;;22.70;37.80
56241;BME280;42155;53.096;23.226;2023-05-02T10:43:15;99815.69;;;22.63;38.25
56241;BME280;42155;53.096;23.226;2023-05-02T10:45:32;99820.31;;;22.76;37.69
56241;BME280;42155;53.096;23.226;2023-05-02T10:47:33;99822.81;;;22.71;37.71
56241;BME280;42155;53.096;23.226;2023-05-02T10:50:09;99815.28;;;22.73;37.77
56241;BME280;42155;53.096;23.226;2023-05-02T10:52:37;99819.84;;;22.59;37.57
56241;BME280;42155;53.096;23.226;2023-05-02T10:54:37;99823.38;;;22.47;37.84
56241;BME280;42155;53.096;23.226;2023-05-02T10:59:27;99826.53;;;22.09;38.54
56241;BME280;42155;53.096;23.226;2023-05-02T11:03:57;99825.00;;;21.93;39.23
56241;BME280;42155;53.096;23.226;2023-05-02T11:06:04;99836.38;;;21.82;39.00
56241;BME280;42155;53.096;23.226;2023-05-02T11:14:47;99825.53;;;21.75;39.97